Terminal Aerodrome Forecast
Issued by NWS Anchorage, AK

Home | Current Version | Previous Version | Text Only | Print | Product List | Glossary On
Versions: 1 2 3 4 5 6 7 8 9 10 11 12 13 14 15 16 17 18 19 20 21 22 23 24
000
FTAK31 PANC 232334
TAFANC
TAF
PANC 232334Z 2400/2506 20007KT 6SM -SHRA BR SCT040 OVC060
      TEMPO 2402/2406 17010G18KT
     FM240600 16018G26KT P6SM VCSH OVC050
     FM241500 34006KT P6SM -RA OVC050
     FM242100 03005KT P6SM VCSH SCT050 OVC070=

USA.gov is the U.S. government's official web portal to all federal, state and local government web resources and services.